Time;durP1;ratioP1;P1;durP2;ratioP2;P2;SDS_P1;SDS_P2;PMS_P1;PMS_P2;Temp;Humidity;BMP_temperature;BMP_pressure;BME280_temperature;BME280_humidity;BME280_pressure;Samples;Min_cycle;Max_cycle;Signal;HPM_P1;HPM_P2
2021/07/17 00:00:51;;;;;;;6.33;3.43;;;;;;;21.76;100.00;101326.63;5041101;28;20799;-81
2021/07/17 00:03:17;;;;;;;8.03;4.40;;;;;;;21.77;100.00;101320.72;5041254;28;20462;-81
2021/07/17 00:05:44;;;;;;;8.80;4.47;;;;;;;21.77;100.00;101320.72;5051074;22;20502;-73
2021/07/17 00:08:10;;;;;;;10.50;4.90;;;;;;;21.76;100.00;101330.16;5032916;28;20459;-74
2021/07/17 00:10:41;;;;;;;4.13;3.73;;;;;;;21.78;100.00;101325.09;5032630;28;20557;-74
2021/07/17 00:13:08;;;;;;;6.87;4.83;;;;;;;21.80;100.00;101325.53;5032729;28;20439;-74
2021/07/17 00:15:36;;;;;;;7.50;4.60;;;;;;;21.83;100.00;101332.31;5032636;28;20450;-74
2021/07/17 00:18:03;;;;;;;6.80;4.07;;;;;;;21.81;100.00;101329.09;5032571;28;20459;-73
2021/07/17 00:20:30;;;;;;;10.03;4.10;;;;;;;21.80;100.00;101333.81;5032630;28;20448;-73
2021/07/17 00:22:56;;;;;;;7.70;4.70;;;;;;;21.79;100.00;101334.97;5032565;28;20446;-73
2021/07/17 00:25:23;;;;;;;7.73;4.83;;;;;;;21.79;100.00;101339.69;5034689;28;20447;-74
2021/07/17 00:27:52;;;;;;;5.03;3.60;;;;;;;21.78;100.00;101341.66;5036086;28;20465;-74
2021/07/17 00:30:19;;;;;;;5.90;4.03;;;;;;;21.78;100.00;101343.59;5036101;28;20509;-73
2021/07/17 00:32:47;;;;;;;4.77;3.77;;;;;;;21.77;100.00;101336.47;5035902;28;20442;-74
2021/07/17 00:35:13;;;;;;;11.17;4.80;;;;;;;21.76;100.00;101337.66;5036091;28;20482;-74
2021/07/17 00:37:40;;;;;;;6.70;3.90;;;;;;;21.74;100.00;101339.97;5035925;28;20467;-74
2021/07/17 00:40:09;;;;;;;8.83;3.17;;;;;;;21.69;100.00;101337.47;5035635;28;20863;-73
2021/07/17 00:42:36;;;;;;;7.20;3.57;;;;;;;21.69;100.00;101334.72;5035942;28;20440;-74
2021/07/17 00:45:05;;;;;;;6.23;4.20;;;;;;;21.66;100.00;101336.25;5035558;28;20454;-74
2021/07/17 00:47:33;;;;;;;8.87;5.47;;;;;;;21.63;100.00;101331.44;5035792;28;20470;-74
2021/07/17 00:50:00;;;;;;;6.77;4.00;;;;;;;21.63;100.00;101334.19;5035662;28;20485;-73
2021/07/17 00:52:27;;;;;;;7.43;4.00;;;;;;;21.64;100.00;101338.53;5035997;28;20443;-74
2021/07/17 00:54:54;;;;;;;5.17;4.00;;;;;;;21.63;100.00;101336.94;5035934;28;20447;-73
2021/07/17 00:57:22;;;;;;;6.00;3.80;;;;;;;21.60;100.00;101337.66;5035567;28;20466;-74
2021/07/17 00:59:52;;;;;;;6.13;4.13;;;;;;;21.58;100.00;101342.75;5035600;28;20451;-74
2021/07/17 01:02:23;;;;;;;7.40;4.40;;;;;;;21.55;100.00;101341.50;5035558;28;20451;-73
2021/07/17 01:04:50;;;;;;;6.43;4.17;;;;;;;21.51;100.00;101346.13;5035608;28;20435;-74
2021/07/17 01:07:18;;;;;;;6.57;3.63;;;;;;;21.49;100.00;101342.13;5035394;28;20470;-74
2021/07/17 01:09:44;;;;;;;5.50;3.90;;;;;;;21.48;100.00;101346.03;5035348;28;20483;-74
2021/07/17 01:12:11;;;;;;;9.37;4.13;;;;;;;21.46;100.00;101345.59;5035393;28;20454;-73
2021/07/17 01:14:37;;;;;;;4.73;3.50;;;;;;;21.45;100.00;101338.47;5035402;28;20454;-74
2021/07/17 01:17:04;;;;;;;5.67;2.97;;;;;;;21.40;100.00;101343.09;5035252;28;20474;-74
2021/07/17 01:19:32;;;;;;;3.97;3.13;;;;;;;21.35;100.00;101345.34;5035293;28;20435;-73
2021/07/17 01:22:00;;;;;;;4.77;2.87;;;;;;;21.29;100.00;101336.47;5035219;28;20466;-74
2021/07/17 01:24:26;;;;;;;3.87;2.67;;;;;;;21.22;100.00;101341.84;5035158;28;20444;-73
2021/07/17 01:26:53;;;;;;;3.70;2.60;;;;;;;21.19;100.00;101342.53;5035020;28;20466;-73
2021/07/17 01:29:20;;;;;;;5.40;3.77;;;;;;;21.17;100.00;101344.84;5034990;28;20439;-73
2021/07/17 01:31:46;;;;;;;4.53;3.03;;;;;;;21.13;100.00;101349.47;5035011;28;20446;-73
2021/07/17 01:34:13;;;;;;;4.50;3.10;;;;;;;21.11;100.00;101351.75;5041670;28;20434;-73
2021/07/17 01:36:40;;;;;;;7.50;2.97;;;;;;;21.15;100.00;101341.63;5034424;28;20450;-72
2021/07/17 01:39:08;;;;;;;4.10;3.13;;;;;;;21.10;100.00;101350.16;5034617;28;20928;-72
2021/07/17 01:41:35;;;;;;;2.87;2.60;;;;;;;21.06;100.00;101349.28;5034853;28;20435;-72
2021/07/17 01:44:01;;;;;;;12.47;2.97;;;;;;;21.00;100.00;101340.47;5034530;28;20943;-72
2021/07/17 01:46:28;;;;;;;5.90;2.80;;;;;;;20.98;100.00;101347.47;5034659;28;20450;-72
2021/07/17 01:48:56;;;;;;;5.10;2.77;;;;;;;20.98;100.00;101340.00;5034655;28;20848;-71
2021/07/17 01:51:23;;;;;;;3.17;2.40;;;;;;;20.92;100.00;101345.00;5034541;28;20495;-72
2021/07/17 01:53:50;;;;;;;5.57;2.80;;;;;;;20.93;100.00;101343.03;5034593;28;20443;-72
2021/07/17 01:56:18;;;;;;;5.87;3.30;;;;;;;20.88;100.00;101346.03;5034551;28;20447;-72
2021/07/17 01:58:44;;;;;;;3.40;2.60;;;;;;;20.87;100.00;101342.50;5034441;28;20489;-71
2021/07/17 02:01:11;;;;;;;4.63;2.73;;;;;;;20.87;100.00;101341.69;5034438;28;20443;-72
2021/07/17 02:03:43;;;;;;;4.97;2.77;;;;;;;20.85;100.00;101350.31;5034472;28;20489;-72
2021/07/17 02:06:10;;;;;;;3.27;2.30;;;;;;;20.84;100.00;101343.19;5034265;28;20454;-71
2021/07/17 02:08:36;;;;;;;3.67;1.90;;;;;;;20.84;100.00;101343.19;5034195;28;20884;-71
2021/07/17 02:11:05;;;;;;;2.20;1.83;;;;;;;20.81;100.00;101338.41;5033879;28;21007;-71
2021/07/17 02:13:33;;;;;;;3.10;2.67;;;;;;;20.80;100.00;101347.00;5034224;28;20442;-72
2021/07/17 02:15:59;;;;;;;4.43;2.70;;;;;;;20.80;100.00;101342.28;5034163;28;20450;-71
2021/07/17 02:18:31;;;;;;;2.97;2.37;;;;;;;20.78;100.00;101343.81;5034070;28;20524;-72
2021/07/17 02:20:59;;;;;;;3.33;2.27;;;;;;;20.82;100.00;101340.00;5033825;28;21020;-72
2021/07/17 02:23:26;;;;;;;3.03;2.30;;;;;;;20.82;100.00;101334.50;5034035;28;20454;-73
2021/07/17 02:25:52;;;;;;;5.43;2.47;;;;;;;20.81;100.00;101329.34;5033960;28;20446;-72
2021/07/17 02:28:20;;;;;;;4.57;2.90;;;;;;;20.80;100.00;101328.53;5033879;28;20463;-73
2021/07/17 02:30:48;;;;;;;3.70;2.73;;;;;;;20.74;100.00;101327.19;5033819;28;20574;-73
2021/07/17 02:33:14;;;;;;;2.80;1.97;;;;;;;20.74;100.00;101318.94;5033637;28;20454;-72
2021/07/17 02:35:41;;;;;;;4.37;2.70;;;;;;;20.71;100.00;101311.34;5033582;28;20451;-73
2021/07/17 02:38:07;;;;;;;2.67;2.20;;;;;;;20.69;100.00;101316.44;5033666;28;20475;-72
2021/07/17 02:40:34;;;;;;;2.93;2.20;;;;;;;20.65;100.00;101313.56;5033710;28;20443;-73
2021/07/17 02:43:00;;;;;;;2.63;2.20;;;;;;;20.66;100.00;101314.38;5033672;28;20439;-72
2021/07/17 02:45:27;;;;;;;2.80;2.03;;;;;;;20.65;100.00;101313.56;5033453;28;21028;-77
2021/07/17 02:47:55;;;;;;;4.90;2.50;;;;;;;20.64;100.00;101322.19;5032733;28;20926;-75
2021/07/17 02:50:22;;;;;;;2.13;1.87;;;;;;;20.62;100.00;101322.53;5033144;28;21011;-75
2021/07/17 02:52:48;;;;;;;3.23;2.10;;;;;;;20.61;100.00;101320.13;5033543;28;20439;-75
2021/07/17 02:55:15;;;;;;;4.73;2.60;;;;;;;20.60;100.00;101315.78;5033240;28;20799;-75
2021/07/17 02:57:42;;;;;;;2.93;2.00;;;;;;;20.55;100.00;101316.84;5033390;28;20474;-74
2021/07/17 03:00:11;;;;;;;3.23;2.20;;;;;;;20.57;100.00;101308.22;5033520;28;20446;-74
2021/07/17 03:02:38;;;;;;;6.50;2.20;;;;;;;20.59;100.00;101316.94;5033497;28;20439;-75
2021/07/17 03:05:08;;;;;;;2.83;2.13;;;;;;;20.58;100.00;101318.06;5033325;28;20463;-75
2021/07/17 03:07:35;;;;;;;2.57;1.90;;;;;;;20.59;100.00;101308.69;5033375;28;20459;-75
2021/07/17 03:10:01;;;;;;;2.27;1.87;;;;;;;20.58;100.00;101312.56;5033270;28;20455;-75
2021/07/17 03:12:28;;;;;;;3.70;2.03;;;;;;;20.59;100.00;101319.69;5033299;28;20439;-75
2021/07/17 03:14:54;;;;;;;3.70;2.53;;;;;;;20.56;100.00;101326.69;5033354;28;20446;-75
2021/07/17 03:17:21;;;;;;;5.00;3.00;;;;;;;20.57;100.00;101328.28;5033226;28;20467;-75
2021/07/17 03:19:48;;;;;;;2.90;1.90;;;;;;;20.58;100.00;101331.84;5033281;28;20447;-74
2021/07/17 03:22:16;;;;;;;2.17;1.97;;;;;;;20.58;100.00;101329.88;5040369;28;20474;-73
2021/07/17 03:24:43;;;;;;;9.33;1.70;;;;;;;20.60;100.00;101335.06;5035582;28;20454;-73
2021/07/17 03:27:09;;;;;;;3.70;1.83;;;;;;;20.57;100.00;101338.50;5033764;28;20505;-73
2021/07/17 03:29:36;;;;;;;7.50;3.03;;;;;;;20.58;100.00;101334.59;5033209;28;20473;-73
2021/07/17 03:32:03;;;;;;;3.67;2.47;;;;;;;20.55;100.00;101341.63;5033239;28;20487;-73
2021/07/17 03:34:29;;;;;;;3.17;2.03;;;;;;;20.51;100.00;101328.91;5033083;28;20454;-73
2021/07/17 03:36:55;;;;;;;5.20;2.33;;;;;;;20.54;100.00;101328.19;5032991;28;20470;-74
2021/07/17 03:39:23;;;;;;;4.30;2.70;;;;;;;20.54;100.00;101333.69;5033045;28;20497;-73
2021/07/17 03:41:50;;;;;;;3.53;2.00;;;;;;;20.56;100.00;101334.16;5033056;28;20512;-74
2021/07/17 03:44:17;;;;;;;4.40;2.50;;;;;;;20.58;100.00;101332.63;5032761;28;20815;-74
2021/07/17 03:46:43;;;;;;;3.77;2.10;;;;;;;20.60;100.00;101337.81;5032895;28;20458;-73
2021/07/17 03:49:09;;;;;;;3.70;2.17;;;;;;;20.60;100.00;101327.59;5032950;28;20454;-72
2021/07/17 03:51:36;;;;;;;4.97;3.00;;;;;;;20.63;100.00;101331.63;5032853;28;20483;-72
2021/07/17 03:54:02;;;;;;;3.30;2.10;;;;;;;20.64;100.00;101327.69;5032583;28;20967;-72
2021/07/17 03:56:30;;;;;;;7.13;2.33;;;;;;;20.62;100.00;101332.75;5032497;28;20963;-72
2021/07/17 03:58:56;;;;;;;6.13;2.60;;;;;;;20.61;100.00;101344.91;5032854;28;20447;-72
2021/07/17 04:01:23;;;;;;;3.53;2.40;;;;;;;20.61;100.00;101339.41;5036659;28;20462;-72
2021/07/17 04:03:50;;;;;;;4.40;2.63;;;;;;;20.62;100.00;101338.25;5036689;28;20451;-73
2021/07/17 04:06:17;;;;;;;2.37;2.03;;;;;;;20.62;100.00;101335.50;5036158;28;21002;-73
2021/07/17 04:08:43;;;;;;;3.30;2.60;;;;;;;20.64;100.00;101338.72;5036196;28;20829;-73
2021/07/17 04:11:10;;;;;;;20.10;3.00;;;;;;;20.66;100.00;101344.66;5036432;28;20498;-73
2021/07/17 04:13:37;;;;;;;3.33;2.20;;;;;;;20.64;100.00;101349.72;5036491;28;20459;-73
2021/07/17 04:16:04;;;;;;;4.13;2.63;;;;;;;20.69;100.00;101351.44;5036429;28;20497;-72
2021/07/17 04:18:31;;;;;;;2.80;2.00;;;;;;;20.73;100.00;101349.56;5036329;28;20463;-73
2021/07/17 04:20:57;;;;;;;4.73;2.20;;;;;;;20.72;100.00;101340.53;5036357;28;20498;-73
2021/07/17 04:23:24;;;;;;;4.30;2.80;;;;;;;20.76;100.00;101338.66;5036328;28;20866;-73
2021/07/17 04:25:50;;;;;;;11.37;2.93;;;;;;;20.78;100.00;101344.59;5036247;28;20442;-73
2021/07/17 04:28:17;;;;;;;5.40;2.50;;;;;;;20.76;100.00;101341.41;5036138;28;20466;-74
2021/07/17 04:30:44;;;;;;;4.07;2.40;;;;;;;20.83;100.00;101349.06;5036115;28;20486;-75
2021/07/17 04:33:11;;;;;;;5.00;2.40;;;;;;;20.88;100.00;101346.03;5036136;28;20461;-75
2021/07/17 04:35:38;;;;;;;5.27;3.07;;;;;;;20.95;100.00;101343.50;5036065;28;20454;-75
2021/07/17 04:38:04;;;;;;;2.90;2.00;;;;;;;20.97;100.00;101345.88;5035669;28;20450;-75
2021/07/17 04:40:30;;;;;;;4.50;2.87;;;;;;;21.03;100.00;101352.72;5035998;28;20481;-75
2021/07/17 04:42:57;;;;;;;3.27;2.80;;;;;;;20.97;100.00;101359.66;5035591;28;20861;-75
2021/07/17 04:45:23;;;;;;;3.67;2.20;;;;;;;21.02;100.00;101359.41;5035892;28;20439;-74
2021/07/17 04:47:51;;;;;;;6.93;2.60;;;;;;;21.04;100.00;101363.41;5035744;28;20470;-75
2021/07/17 04:50:17;;;;;;;2.97;2.10;;;;;;;21.05;100.00;101370.50;5035815;28;20509;-75
2021/07/17 04:52:44;;;;;;;4.17;2.73;;;;;;;21.11;100.00;101362.78;5035660;28;20487;-74
2021/07/17 04:55:11;;;;;;;2.90;2.30;;;;;;;21.14;100.00;101362.88;5035727;28;20451;-75
2021/07/17 04:57:37;;;;;;;6.53;3.20;;;;;;;21.18;100.00;101365.75;5035604;28;20498;-74
2021/07/17 05:00:05;;;;;;;3.90;2.37;;;;;;;21.23;100.00;101367.44;5035641;28;20459;-73
2021/07/17 05:02:32;;;;;;;3.70;2.80;;;;;;;21.27;100.00;101366.38;5035638;28;20435;-74
2021/07/17 05:04:59;;;;;;;5.80;2.33;;;;;;;21.29;100.00;101372.31;5035310;28;20450;-74
2021/07/17 05:07:26;;;;;;;8.97;2.30;;;;;;;21.37;100.00;101371.38;5035127;28;21002;-74
2021/07/17 05:09:52;;;;;;;4.83;2.40;;;;;;;21.35;100.00;101368.19;5035367;28;20450;-74
2021/07/17 05:12:18;;;;;;;5.63;3.20;;;;;;;21.41;100.00;101376.97;5033846;28;20948;-74
2021/07/17 05:14:45;;;;;;;3.43;2.37;;;;;;;21.44;100.00;101372.72;5035283;28;20497;-74
2021/07/17 05:17:11;;;;;;;5.73;2.43;;;;;;;21.49;100.00;101375.22;5035240;28;20467;-74
2021/07/17 05:19:38;;;;;;;3.53;2.30;;;;;;;21.54;100.00;101378.50;5035273;28;20450;-74
2021/07/17 05:22:05;;;;;;;3.93;3.07;;;;;;;21.61;100.00;101370.41;5039578;28;20432;-73
2021/07/17 05:24:32;;;;;;;7.00;3.20;;;;;;;21.57;100.00;101372.28;5034890;28;20940;-73
2021/07/17 05:26:58;;;;;;;3.43;2.77;;;;;;;21.62;100.00;101371.19;5035051;28;20467;-73
2021/07/17 05:29:25;;;;;;;5.47;2.77;;;;;;;21.60;100.00;101379.00;5035103;28;20541;-74
2021/07/17 05:31:51;;;;;;;4.03;2.33;;;;;;;21.54;100.00;101374.94;5034969;28;20490;-74
2021/07/17 05:34:18;;;;;;;4.60;3.00;;;;;;;21.56;100.00;101378.13;5034978;28;20446;-74
2021/07/17 05:36:44;;;;;;;4.67;3.63;;;;;;;21.57;100.00;101379.75;5034862;28;20450;-74
2021/07/17 05:39:12;;;;;;;6.20;2.20;;;;;;;21.53;100.00;101373.34;5034883;28;20489;-74
2021/07/17 05:41:38;;;;;;;5.80;3.63;;;;;;;21.58;100.00;101371.09;5034546;28;20928;-72
2021/07/17 05:44:05;;;;;;;4.67;2.70;;;;;;;21.66;100.00;101369.34;5034851;28;20443;-71
2021/07/17 05:46:32;;;;;;;3.73;2.60;;;;;;;21.73;100.00;101377.75;5034664;28;20439;-72
2021/07/17 05:48:58;;;;;;;6.50;3.10;;;;;;;21.80;100.00;101366.91;5034686;28;20447;-72
2021/07/17 05:51:24;;;;;;;5.87;2.70;;;;;;;21.82;100.00;101374.81;5034605;28;20483;-72
2021/07/17 05:53:51;;;;;;;5.40;3.90;;;;;;;21.78;100.00;101366.47;5034603;28;20435;-71
2021/07/17 05:56:19;;;;;;;5.13;2.80;;;;;;;21.85;100.00;101374.09;5034559;28;20447;-71
2021/07/17 05:58:45;;;;;;;6.70;2.93;;;;;;;21.88;100.00;101376.97;5058566;22;20490;-70
2021/07/17 06:01:11;;;;;;;3.63;2.90;;;;;;;21.93;100.00;101370.34;5034513;28;20820;-68
2021/07/17 06:03:40;;;;;;;8.17;3.37;;;;;;;21.95;100.00;101370.00;5034253;28;20917;-70
2021/07/17 06:06:06;;;;;;;12.30;3.40;;;;;;;22.00;100.00;101375.22;5034406;28;20447;-69
2021/07/17 06:08:33;;;;;;;5.07;2.80;;;;;;;22.09;100.00;101378.59;5033854;28;20529;-70
2021/07/17 06:10:59;;;;;;;4.50;3.27;;;;;;;22.13;100.00;101383.09;5034280;28;20454;-69
2021/07/17 06:13:27;;;;;;;7.37;4.07;;;;;;;22.13;100.00;101388.59;5033896;28;20470;-70
2021/07/17 06:15:53;;;;;;;6.17;3.30;;;;;;;22.15;100.00;101391.00;5034183;28;20447;-70
2021/07/17 06:18:20;;;;;;;6.40;2.93;;;;;;;22.16;100.00;101387.88;5033966;28;20467;-70
2021/07/17 06:20:47;;;;;;;7.93;4.37;;;;;;;22.11;100.00;101398.34;5033915;28;20439;-70
2021/07/17 06:23:14;;;;;;;7.50;3.90;;;;;;;22.14;100.00;101398.47;5033927;28;20439;-70
2021/07/17 06:25:40;;;;;;;5.33;3.77;;;;;;;22.18;100.00;101387.53;5034343;28;20440;-69
2021/07/17 06:28:07;;;;;;;9.40;4.40;;;;;;;22.23;100.00;101384.47;5033628;28;20467;-70
2021/07/17 06:30:34;;;;;;;9.83;3.20;;;;;;;22.29;100.00;101388.53;5033949;28;20446;-69
2021/07/17 06:33:01;;;;;;;4.47;3.20;;;;;;;22.36;100.00;101394.22;5033788;28;20491;-69
2021/07/17 06:35:27;;;;;;;6.33;4.00;;;;;;;22.40;100.00;101399.81;5033954;28;20439;-69
2021/07/17 06:37:54;;;;;;;10.40;3.37;;;;;;;22.46;100.00;101392.84;5033812;28;20467;-69
2021/07/17 06:40:20;;;;;;;8.80;4.27;;;;;;;22.53;100.00;101404.03;5033781;28;20455;-68
2021/07/17 06:42:48;;;;;;;6.37;3.47;;;;;;;22.60;100.00;101411.69;5033741;28;20439;-69
2021/07/17 06:45:16;;;;;;;7.93;4.40;;;;;;;22.60;100.00;101415.22;5033729;28;20451;-70
2021/07/17 06:47:44;;;;;;;7.10;4.53;;;;;;;22.65;100.00;101417.69;5033632;28;20486;-69
2021/07/17 06:50:12;;;;;;;7.90;4.20;;;;;;;22.69;100.00;101417.78;5033659;28;20458;-68
2021/07/17 06:52:39;;;;;;;6.27;4.30;;;;;;;22.73;100.00;101426.16;5033494;28;20490;-69
2021/07/17 06:55:08;;;;;;;10.57;4.50;;;;;;;22.76;100.00;101417.94;5033551;28;20431;-69
2021/07/17 06:57:36;;;;;;;7.57;4.57;;;;;;;22.79;100.00;101417.19;5033063;28;20470;-68
2021/07/17 07:00:04;;;;;;;7.87;4.30;;;;;;;22.79;100.00;101424.69;5033572;28;20493;-70
2021/07/17 07:02:30;;;;;;;7.63;3.90;;;;;;;22.81;100.00;101425.94;5033499;28;20443;-68
2021/07/17 07:04:58;;;;;;;9.97;4.97;;;;;;;22.81;100.00;101431.47;5033262;28;20932;-69
2021/07/17 07:07:24;;;;;;;5.50;3.53;;;;;;;22.84;100.00;101427.97;5033422;28;20467;-69
2021/07/17 07:09:51;;;;;;;7.00;4.37;;;;;;;22.97;100.00;101427.84;5033632;28;20442;-71
2021/07/17 07:12:17;;;;;;;7.33;4.33;;;;;;;22.99;100.00;101431.84;5033069;28;21022;-72
2021/07/17 07:14:44;;;;;;;7.50;3.80;;;;;;;23.10;100.00;101429.28;5033300;28;20445;-72
2021/07/17 07:17:10;;;;;;;5.77;4.07;;;;;;;23.14;100.00;101432.91;5033241;28;20443;-72
2021/07/17 07:19:37;;;;;;;7.07;4.80;;;;;;;23.15;100.00;101432.56;5033267;28;20454;-73
2021/07/17 07:22:05;;;;;;;6.40;4.30;;;;;;;23.23;100.00;101429.91;5033016;28;20931;-72
2021/07/17 07:24:32;;;;;;;11.77;4.57;;;;;;;23.31;100.00;101437.19;5033364;28;20451;-71
2021/07/17 07:26:58;;;;;;;9.40;5.43;;;;;;;23.36;100.00;101445.16;5033204;28;20508;-71
2021/07/17 07:29:26;;;;;;;5.80;4.17;;;;;;;23.36;100.00;101447.94;5033211;28;20447;-70
2021/07/17 07:31:53;;;;;;;7.10;4.07;;;;;;;23.35;100.00;101444.38;5033094;28;20487;-71
2021/07/17 07:34:20;;;;;;;8.20;4.90;;;;;;;23.35;100.00;101447.13;5033336;28;20856;-72
2021/07/17 07:36:47;;;;;;;8.73;5.47;;;;;;;23.36;100.00;101447.94;5037211;28;20443;-71
2021/07/17 07:39:15;;;;;;;8.53;4.30;;;;;;;23.33;100.00;101446.72;5037043;28;20473;-70
2021/07/17 07:41:42;;;;;;;9.70;5.27;;;;;;;23.37;100.00;101457.81;5037195;28;20445;-71
2021/07/17 07:44:08;;;;;;;8.23;5.30;;;;;;;23.44;100.00;101454.41;5037013;28;20454;-69
2021/07/17 07:46:35;;;;;;;8.30;5.17;;;;;;;23.53;100.00;101450.22;5037311;28;20489;-71
2021/07/17 07:49:02;;;;;;;6.17;3.90;;;;;;;23.59;100.00;101454.25;5036929;28;20467;-71
2021/07/17 07:51:28;;;;;;;7.83;5.50;;;;;;;23.69;100.00;101454.88;5036759;28;20455;-70
2021/07/17 07:53:55;;;;;;;9.20;5.43;;;;;;;23.65;100.00;101449.28;5036888;28;20451;-71
2021/07/17 07:56:23;;;;;;;8.33;4.77;;;;;;;23.75;100.00;101442.31;5036483;28;20962;-69
2021/07/17 07:58:49;;;;;;;8.07;4.80;;;;;;;23.88;99.93;101454.78;5036553;28;20520;-71
2021/07/17 08:01:15;;;;;;;10.43;4.63;;;;;;;23.98;99.22;101458.91;5036697;28;20449;-70
2021/07/17 08:03:42;;;;;;;7.13;4.40;;;;;;;24.00;98.56;101456.56;5036693;28;20439;-71
2021/07/17 08:06:08;;;;;;;8.60;4.70;;;;;;;23.96;97.45;101456.50;5036657;28;20451;-71
2021/07/17 08:08:35;;;;;;;9.73;4.67;;;;;;;23.86;99.02;101451.56;5036594;28;20544;-71
2021/07/17 08:11:02;;;;;;;7.20;4.73;;;;;;;23.98;98.15;101451.38;5036576;28;20439;-71
2021/07/17 08:13:30;;;;;;;6.50;4.00;;;;;;;24.11;98.50;101451.97;5036521;28;20486;-71
2021/07/17 08:15:58;;;;;;;10.97;5.83;;;;;;;24.19;97.25;101441.81;5036092;28;20948;-71
2021/07/17 08:18:24;;;;;;;8.53;5.50;;;;;;;24.22;97.96;101449.38;5036472;28;20510;-70
2021/07/17 08:20:50;;;;;;;9.77;5.50;;;;;;;24.34;97.41;101457.47;5036132;28;20855;-71
2021/07/17 08:23:17;;;;;;;8.27;4.97;;;;;;;24.26;96.90;101464.88;5036372;28;20450;-71
2021/07/17 08:25:43;;;;;;;8.97;4.73;;;;;;;24.34;96.30;101457.47;5036342;28;20447;-71
2021/07/17 08:28:10;;;;;;;11.00;4.87;;;;;;;24.42;96.54;101457.22;5036470;28;20459;-70
2021/07/17 08:30:38;;;;;;;9.37;4.87;;;;;;;24.45;95.90;101461.22;5036014;28;20932;-71
2021/07/17 08:33:05;;;;;;;8.53;5.50;;;;;;;24.38;96.21;101463.88;5036133;28;20862;-71
2021/07/17 08:35:32;;;;;;;10.00;5.07;;;;;;;24.45;95.11;101466.75;5036223;28;20455;-72
2021/07/17 08:37:59;;;;;;;8.07;4.90;;;;;;;24.46;96.13;101468.34;5036090;28;20459;-72
2021/07/17 08:40:26;;;;;;;7.30;5.23;;;;;;;24.51;95.83;101473.56;5036144;28;20443;-72
2021/07/17 08:42:52;;;;;;;6.30;4.77;;;;;;;24.47;96.16;101466.38;5036038;28;20476;-72
2021/07/17 08:45:20;;;;;;;12.50;4.80;;;;;;;24.50;95.79;101471.19;5035888;28;20447;-72
2021/07/17 08:47:48;;;;;;;8.10;5.00;;;;;;;24.51;96.27;101475.53;5035064;28;20490;-73
2021/07/17 08:50:18;;;;;;;6.50;4.83;;;;;;;24.46;95.55;101473.09;5035890;28;20940;-73
2021/07/17 08:52:45;;;;;;;8.50;4.67;;;;;;;24.40;96.39;101473.41;5035896;28;20471;-73
2021/07/17 08:55:13;;;;;;;8.80;5.50;;;;;;;24.35;95.57;101473.72;5035811;28;20446;-72
2021/07/17 08:57:41;;;;;;;8.13;4.80;;;;;;;24.47;95.08;101474.69;5035466;28;20490;-73
2021/07/17 09:00:11;;;;;;;6.53;4.47;;;;;;;24.59;94.56;101468.91;5035624;28;20436;-73
2021/07/17 09:02:38;;;;;;;8.80;5.50;;;;;;;24.80;94.60;101471.19;5034799;28;20485;-72
2021/07/17 09:05:09;;;;;;;8.57;5.07;;;;;;;24.98;94.16;101468.63;5035090;28;20482;-71
2021/07/17 09:07:35;;;;;;;6.40;4.57;;;;;;;25.08;92.87;101476.28;5034978;28;20509;-72
2021/07/17 09:10:27;;;;;;;11.50;6.20;;;;;;;25.21;91.19;101472.09;5035238;28;20435;-74
2021/07/17 09:13:07;;;;;;;11.17;6.37;;;;;;;25.33;91.13;101468.25;5034609;28;20557;-73
2021/07/17 09:15:34;;;;;;;8.13;5.20;;;;;;;25.35;91.08;101479.75;5034973;28;20427;-72
2021/07/17 09:18:01;;;;;;;13.77;6.00;;;;;;;25.27;91.46;101472.53;5034946;28;20467;-72
2021/07/17 09:20:29;;;;;;;7.43;4.77;;;;;;;25.26;92.27;101476.50;5034821;28;20443;-70
2021/07/17 09:22:58;;;;;;;9.00;5.43;;;;;;;25.16;93.08;101472.44;5034802;28;20439;-72
2021/07/17 09:25:24;;;;;;;6.40;4.40;;;;;;;25.08;92.62;101460.44;5034745;28;20478;-72
2021/07/17 09:27:51;;;;;;;8.53;5.00;;;;;;;25.06;92.46;101467.53;5034191;28;20459;-71
2021/07/17 09:30:34;;;;;;;8.00;5.13;;;;;;;25.06;91.75;101470.31;5034834;28;20442;-73
2021/07/17 09:33:02;;;;;;;7.33;3.93;;;;;;;25.04;90.85;101461.56;5034504;28;20843;-72
2021/07/17 09:35:32;;;;;;;7.30;4.20;;;;;;;25.01;90.28;101459.53;5034394;28;20446;-71
2021/07/17 09:38:00;;;;;;;6.60;4.30;;;;;;;24.99;90.81;101459.94;5035041;28;20467;-71
2021/07/17 09:40:27;;;;;;;8.70;4.97;;;;;;;25.01;91.83;101467.84;5034661;28;20849;-70
2021/07/17 09:42:54;;;;;;;8.27;5.37;;;;;;;24.95;91.32;101466.59;5034895;28;20446;-71
2021/07/17 09:45:36;;;;;;;10.23;5.23;;;;;;;24.91;92.91;101469.31;5034742;28;20505;-70
2021/07/17 09:48:23;;;;;;;11.60;5.27;;;;;;;24.89;92.06;101458.63;5031831;28;20578;-70
2021/07/17 09:50:52;;;;;;;10.63;5.80;;;;;;;24.99;91.80;101461.91;5034739;28;20416;-70
2021/07/17 09:53:38;;;;;;;7.50;5.67;;;;;;;25.05;91.43;101458.41;5034676;28;20526;-69
2021/07/17 09:56:09;;;;;;;7.87;4.63;;;;;;;25.09;91.65;101461.25;5034637;28;20446;-71
2021/07/17 09:58:37;;;;;;;9.73;5.30;;;;;;;25.15;92.88;101459.75;5033874;28;20478;-69
2021/07/17 10:01:26;;;;;;;17.03;5.37;;;;;;;25.17;91.09;101460.16;5034273;28;20863;-70
2021/07/17 10:03:58;;;;;;;8.43;4.53;;;;;;;25.28;90.47;101458.31;5028841;28;20455;-71
2021/07/17 10:06:44;;;;;;;9.30;4.70;;;;;;;25.41;91.26;101459.63;5034429;28;20430;-69
2021/07/17 10:09:29;;;;;;;6.80;4.87;;;;;;;25.53;90.59;101453.00;5034332;28;20470;-68
2021/07/17 10:12:01;;;;;;;9.00;5.37;;;;;;;25.63;89.62;101455.09;5033016;28;20463;-70
2021/07/17 10:14:29;;;;;;;11.47;6.23;;;;;;;25.72;90.09;101452.00;5034325;28;20834;-71
2021/07/17 10:16:58;;;;;;;8.07;5.30;;;;;;;25.89;88.51;101453.31;5034218;28;20462;-70
2021/07/17 10:19:26;;;;;;;10.83;5.50;;;;;;;26.02;88.55;101456.59;5034465;28;20565;-70
2021/07/17 10:21:55;;;;;;;9.30;5.10;;;;;;;25.94;85.36;101460.50;5034383;28;20458;-69
2021/07/17 10:24:23;;;;;;;8.23;5.33;;;;;;;26.02;85.31;101451.03;5034100;28;20439;-70
2021/07/17 10:26:51;;;;;;;9.07;5.40;;;;;;;26.05;87.05;101445.50;5034086;28;20454;-70
2021/07/17 10:29:18;;;;;;;7.30;4.20;;;;;;;26.03;84.84;101447.06;5033974;28;20473;-71
2021/07/17 10:31:45;;;;;;;10.23;5.30;;;;;;;26.07;84.24;101442.34;5033710;28;20443;-70
2021/07/17 10:34:12;;;;;;;8.20;4.97;;;;;;;26.13;84.37;101435.25;5034399;28;20483;-70
2021/07/17 10:36:44;;;;;;;8.93;5.50;;;;;;;26.21;83.83;101442.47;5033849;28;20439;-70
2021/07/17 10:39:13;;;;;;;8.87;4.77;;;;;;;26.33;84.14;101444.09;5033837;28;20827;-70
2021/07/17 10:41:43;;;;;;;9.50;5.57;;;;;;;26.43;83.44;101437.81;5033863;28;20435;-71
2021/07/17 10:44:09;;;;;;;6.93;5.03;;;;;;;26.66;84.44;101434.78;5033808;28;20443;-69
2021/07/17 10:46:38;;;;;;;8.50;4.80;;;;;;;26.85;82.36;101426.09;5033689;28;20446;-67
2021/07/17 10:49:06;;;;;;;9.63;5.23;;;;;;;26.90;80.39;101428.50;5033608;28;20459;-71
2021/07/17 10:51:35;;;;;;;10.40;5.20;;;;;;;26.87;80.86;101417.34;5033603;28;20446;-69
2021/07/17 10:54:07;;;;;;;8.47;4.70;;;;;;;26.86;82.08;101422.13;5033521;28;20479;-70
2021/07/17 10:56:46;;;;;;;9.47;5.60;;;;;;;26.73;82.24;101426.44;5033586;28;20439;-70
2021/07/17 10:59:44;;;;;;;7.67;5.00;;;;;;;26.63;82.16;101422.44;5033169;28;20471;-69
2021/07/17 11:02:12;;;;;;;11.83;5.53;;;;;;;26.67;80.45;101414.91;5033544;28;20450;-70
2021/07/17 11:04:48;;;;;;;10.33;4.93;;;;;;;26.87;80.19;101418.19;5033426;28;20439;-71
2021/07/17 11:07:32;;;;;;;6.40;5.00;;;;;;;27.01;79.90;101399.94;5033347;28;20968;-69
2021/07/17 11:10:00;;;;;;;8.70;4.60;;;;;;;27.20;81.29;101412.72;5032611;28;20459;-70
2021/07/17 11:12:30;;;;;;;6.90;4.57;;;;;;;27.33;77.84;101416.72;5033170;28;20451;-69
2021/07/17 11:15:04;;;;;;;8.70;5.17;;;;;;;27.33;78.27;101411.16;5032959;28;20955;-70
2021/07/17 11:17:46;;;;;;;8.63;5.00;;;;;;;27.34;76.08;101401.59;5032957;28;20883;-70
2021/07/17 11:20:20;;;;;;;8.27;5.20;;;;;;;27.56;77.89;101399.63;5030747;28;20458;-70
2021/07/17 11:22:59;;;;;;;7.50;5.30;;;;;;;27.80;74.43;101401.63;5033373;28;20439;-70